sensor_id;sensor_type;location;lat;lon;timestamp;P1;durP1;ratioP1;P2;durP2;ratioP2
18623;SDS011;9441;51.420;7.036;2023-03-04T00:00:27;14.17;;;5.53;;
18623;SDS011;9441;51.420;7.036;2023-03-04T00:01:29;12.00;;;5.00;;
18623;SDS011;9441;51.420;7.036;2023-03-04T00:02:31;18.63;;;5.63;;
18623;SDS011;9441;51.420;7.036;2023-03-04T00:03:33;24.23;;;5.80;;
18623;SDS011;9441;51.420;7.036;2023-03-04T00:04:37;22.80;;;5.60;;
18623;SDS011;9441;51.420;7.036;2023-03-04T00:05:39;16.73;;;5.40;;
18623;SDS011;9441;51.420;7.036;2023-03-04T00:06:41;13.87;;;5.23;;
18623;SDS011;9441;51.420;7.036;2023-03-04T00:07:42;18.87;;;5.93;;
18623;SDS011;9441;51.420;7.036;2023-03-04T00:08:45;16.90;;;5.47;;
18623;SDS011;9441;51.420;7.036;2023-03-04T00:09:46;17.27;;;5.90;;
18623;SDS011;9441;51.420;7.036;2023-03-04T00:10:48;19.07;;;5.97;;
18623;SDS011;9441;51.420;7.036;2023-03-04T00:11:50;21.77;;;5.47;;
18623;SDS011;9441;51.420;7.036;2023-03-04T00:12:52;25.80;;;6.10;;
18623;SDS011;9441;51.420;7.036;2023-03-04T00:13:54;17.07;;;5.40;;
18623;SDS011;9441;51.420;7.036;2023-03-04T00:14:56;22.20;;;5.77;;
18623;SDS011;9441;51.420;7.036;2023-03-04T00:15:58;16.70;;;5.20;;
18623;SDS011;9441;51.420;7.036;2023-03-04T00:17:00;23.73;;;5.90;;
18623;SDS011;9441;51.420;7.036;2023-03-04T00:18:03;19.03;;;5.33;;
18623;SDS011;9441;51.420;7.036;2023-03-04T00:19:06;25.33;;;5.40;;
18623;SDS011;9441;51.420;7.036;2023-03-04T00:20:09;24.20;;;5.93;;
18623;SDS011;9441;51.420;7.036;2023-03-04T00:21:12;27.23;;;6.13;;
18623;SDS011;9441;51.420;7.036;2023-03-04T00:22:13;27.33;;;6.10;;
18623;SDS011;9441;51.420;7.036;2023-03-04T00:23:15;13.97;;;5.33;;
18623;SDS011;9441;51.420;7.036;2023-03-04T00:24:17;21.50;;;5.80;;
18623;SDS011;9441;51.420;7.036;2023-03-04T00:25:20;18.13;;;5.40;;
18623;SDS011;9441;51.420;7.036;2023-03-04T00:26:21;20.20;;;5.53;;
18623;SDS011;9441;51.420;7.036;2023-03-04T00:27:23;18.57;;;5.77;;
18623;SDS011;9441;51.420;7.036;2023-03-04T00:28:25;20.17;;;5.63;;
18623;SDS011;9441;51.420;7.036;2023-03-04T00:29:27;19.77;;;5.30;;
18623;SDS011;9441;51.420;7.036;2023-03-04T00:30:29;19.30;;;5.33;;
18623;SDS011;9441;51.420;7.036;2023-03-04T00:31:31;17.57;;;4.87;;
18623;SDS011;9441;51.420;7.036;2023-03-04T00:32:32;18.47;;;5.10;;
18623;SDS011;9441;51.420;7.036;2023-03-04T00:33:35;27.03;;;5.37;;
18623;SDS011;9441;51.420;7.036;2023-03-04T00:34:36;19.00;;;5.13;;
18623;SDS011;9441;51.420;7.036;2023-03-04T00:35:41;16.60;;;5.00;;
18623;SDS011;9441;51.420;7.036;2023-03-04T00:36:42;21.80;;;4.53;;
18623;SDS011;9441;51.420;7.036;2023-03-04T00:37:44;14.17;;;4.57;;
18623;SDS011;9441;51.420;7.036;2023-03-04T00:38:46;20.53;;;4.40;;
18623;SDS011;9441;51.420;7.036;2023-03-04T00:39:48;16.13;;;5.20;;
18623;SDS011;9441;51.420;7.036;2023-03-04T00:40:50;23.47;;;5.97;;
18623;SDS011;9441;51.420;7.036;2023-03-04T00:41:52;20.40;;;6.33;;
18623;SDS011;9441;51.420;7.036;2023-03-04T00:42:53;22.13;;;6.37;;
18623;SDS011;9441;51.420;7.036;2023-03-04T00:43:56;21.90;;;6.40;;
18623;SDS011;9441;51.420;7.036;2023-03-04T00:44:57;23.50;;;7.50;;
18623;SDS011;9441;51.420;7.036;2023-03-04T00:45:59;21.03;;;6.10;;
18623;SDS011;9441;51.420;7.036;2023-03-04T00:47:01;14.60;;;5.83;;
18623;SDS011;9441;51.420;7.036;2023-03-04T00:48:03;20.93;;;7.00;;
18623;SDS011;9441;51.420;7.036;2023-03-04T00:49:05;21.47;;;6.50;;
18623;SDS011;9441;51.420;7.036;2023-03-04T00:50:08;25.97;;;6.23;;
18623;SDS011;9441;51.420;7.036;2023-03-04T00:51:11;15.57;;;5.53;;
18623;SDS011;9441;51.420;7.036;2023-03-04T00:52:13;16.07;;;5.33;;
18623;SDS011;9441;51.420;7.036;2023-03-04T00:53:14;20.83;;;5.37;;
18623;SDS011;9441;51.420;7.036;2023-03-04T00:54:17;18.10;;;5.53;;
18623;SDS011;9441;51.420;7.036;2023-03-04T00:55:19;14.57;;;5.00;;
18623;SDS011;9441;51.420;7.036;2023-03-04T00:56:21;16.93;;;4.83;;
18623;SDS011;9441;51.420;7.036;2023-03-04T00:57:23;20.97;;;5.50;;
18623;SDS011;9441;51.420;7.036;2023-03-04T00:58:25;22.40;;;5.23;;
18623;SDS011;9441;51.420;7.036;2023-03-04T00:59:26;16.57;;;4.50;;
18623;SDS011;9441;51.420;7.036;2023-03-04T01:00:29;21.33;;;4.63;;
18623;SDS011;9441;51.420;7.036;2023-03-04T01:01:31;16.43;;;4.67;;
18623;SDS011;9441;51.420;7.036;2023-03-04T01:02:33;19.37;;;4.90;;
18623;SDS011;9441;51.420;7.036;2023-03-04T01:03:35;20.07;;;4.70;;
18623;SDS011;9441;51.420;7.036;2023-03-04T01:04:40;20.70;;;4.70;;
18623;SDS011;9441;51.420;7.036;2023-03-04T01:05:42;22.17;;;4.73;;
18623;SDS011;9441;51.420;7.036;2023-03-04T01:06:46;21.30;;;5.10;;
18623;SDS011;9441;51.420;7.036;2023-03-04T01:07:47;24.70;;;5.83;;
18623;SDS011;9441;51.420;7.036;2023-03-04T01:08:49;22.90;;;5.13;;
18623;SDS011;9441;51.420;7.036;2023-03-04T01:09:51;20.63;;;4.80;;
18623;SDS011;9441;51.420;7.036;2023-03-04T01:10:53;19.20;;;5.20;;
18623;SDS011;9441;51.420;7.036;2023-03-04T01:11:55;14.87;;;4.43;;
18623;SDS011;9441;51.420;7.036;2023-03-04T01:12:57;21.77;;;4.97;;
18623;SDS011;9441;51.420;7.036;2023-03-04T01:14:00;20.13;;;5.10;;
18623;SDS011;9441;51.420;7.036;2023-03-04T01:15:03;15.73;;;4.93;;
18623;SDS011;9441;51.420;7.036;2023-03-04T01:16:05;16.87;;;4.63;;
18623;SDS011;9441;51.420;7.036;2023-03-04T01:17:07;17.23;;;5.17;;
18623;SDS011;9441;51.420;7.036;2023-03-04T01:18:09;20.30;;;4.70;;
18623;SDS011;9441;51.420;7.036;2023-03-04T01:19:11;27.00;;;5.50;;
18623;SDS011;9441;51.420;7.036;2023-03-04T01:20:12;22.23;;;5.10;;
18623;SDS011;9441;51.420;7.036;2023-03-04T01:21:15;20.50;;;5.67;;
18623;SDS011;9441;51.420;7.036;2023-03-04T01:22:18;21.13;;;5.60;;
18623;SDS011;9441;51.420;7.036;2023-03-04T01:23:21;26.10;;;5.30;;
18623;SDS011;9441;51.420;7.036;2023-03-04T01:24:22;27.50;;;5.23;;
18623;SDS011;9441;51.420;7.036;2023-03-04T01:25:25;26.10;;;5.10;;
18623;SDS011;9441;51.420;7.036;2023-03-04T01:26:26;17.07;;;4.73;;
18623;SDS011;9441;51.420;7.036;2023-03-04T01:27:28;21.83;;;4.87;;
18623;SDS011;9441;51.420;7.036;2023-03-04T01:28:30;29.73;;;4.60;;
18623;SDS011;9441;51.420;7.036;2023-03-04T01:29:35;17.73;;;5.07;;
18623;SDS011;9441;51.420;7.036;2023-03-04T01:30:36;20.43;;;4.87;;
18623;SDS011;9441;51.420;7.036;2023-03-04T01:31:38;23.47;;;4.80;;
18623;SDS011;9441;51.420;7.036;2023-03-04T01:32:40;17.37;;;4.13;;
18623;SDS011;9441;51.420;7.036;2023-03-04T01:33:43;20.00;;;4.63;;
18623;SDS011;9441;51.420;7.036;2023-03-04T01:34:44;22.83;;;4.70;;
18623;SDS011;9441;51.420;7.036;2023-03-04T01:35:46;20.87;;;4.13;;
18623;SDS011;9441;51.420;7.036;2023-03-04T01:36:48;16.70;;;4.23;;
18623;SDS011;9441;51.420;7.036;2023-03-04T01:37:53;26.10;;;4.87;;
18623;SDS011;9441;51.420;7.036;2023-03-04T01:38:55;21.40;;;4.67;;
18623;SDS011;9441;51.420;7.036;2023-03-04T01:39:58;23.50;;;4.37;;
18623;SDS011;9441;51.420;7.036;2023-03-04T01:40:59;17.20;;;4.70;;
18623;SDS011;9441;51.420;7.036;2023-03-04T01:42:01;19.90;;;4.40;;
18623;SDS011;9441;51.420;7.036;2023-03-04T01:43:03;18.47;;;4.67;;
18623;SDS011;9441;51.420;7.036;2023-03-04T01:44:05;23.93;;;4.70;;
18623;SDS011;9441;51.420;7.036;2023-03-04T01:45:09;21.03;;;4.77;;
18623;SDS011;9441;51.420;7.036;2023-03-04T01:46:12;22.53;;;4.23;;
18623;SDS011;9441;51.420;7.036;2023-03-04T01:47:14;22.70;;;4.60;;
18623;SDS011;9441;51.420;7.036;2023-03-04T01:48:18;25.37;;;4.33;;
18623;SDS011;9441;51.420;7.036;2023-03-04T01:49:20;14.20;;;4.10;;
18623;SDS011;9441;51.420;7.036;2023-03-04T01:50:26;22.80;;;4.17;;
18623;SDS011;9441;51.420;7.036;2023-03-04T01:51:28;23.90;;;4.77;;
18623;SDS011;9441;51.420;7.036;2023-03-04T01:52:30;17.57;;;4.30;;
18623;SDS011;9441;51.420;7.036;2023-03-04T01:53:33;28.43;;;5.93;;
18623;SDS011;9441;51.420;7.036;2023-03-04T01:54:35;28.80;;;4.90;;
18623;SDS011;9441;51.420;7.036;2023-03-04T01:55:37;21.17;;;4.90;;
18623;SDS011;9441;51.420;7.036;2023-03-04T01:56:39;19.63;;;4.73;;
18623;SDS011;9441;51.420;7.036;2023-03-04T01:57:41;22.43;;;6.50;;
18623;SDS011;9441;51.420;7.036;2023-03-04T01:58:43;25.63;;;6.63;;
18623;SDS011;9441;51.420;7.036;2023-03-04T01:59:45;24.80;;;5.30;;
18623;SDS011;9441;51.420;7.036;2023-03-04T02:00:48;18.73;;;5.97;;
18623;SDS011;9441;51.420;7.036;2023-03-04T02:01:50;18.17;;;5.50;;
18623;SDS011;9441;51.420;7.036;2023-03-04T02:02:56;25.60;;;5.60;;
18623;SDS011;9441;51.420;7.036;2023-03-04T02:03:57;22.57;;;4.77;;
18623;SDS011;9441;51.420;7.036;2023-03-04T02:05:01;21.37;;;4.80;;
18623;SDS011;9441;51.420;7.036;2023-03-04T02:06:03;22.33;;;5.50;;
18623;SDS011;9441;51.420;7.036;2023-03-04T02:07:06;19.37;;;4.60;;
18623;SDS011;9441;51.420;7.036;2023-03-04T02:08:08;19.93;;;4.83;;
18623;SDS011;9441;51.420;7.036;2023-03-04T02:09:12;23.47;;;5.27;;
18623;SDS011;9441;51.420;7.036;2023-03-04T02:10:14;22.30;;;5.00;;
18623;SDS011;9441;51.420;7.036;2023-03-04T02:11:16;22.13;;;4.97;;
18623;SDS011;9441;51.420;7.036;2023-03-04T02:12:18;21.40;;;5.33;;
18623;SDS011;9441;51.420;7.036;2023-03-04T02:13:21;25.53;;;4.97;;
18623;SDS011;9441;51.420;7.036;2023-03-04T02:14:22;25.17;;;6.07;;
18623;SDS011;9441;51.420;7.036;2023-03-04T02:15:24;29.43;;;4.63;;
18623;SDS011;9441;51.420;7.036;2023-03-04T02:16:26;20.10;;;4.70;;
18623;SDS011;9441;51.420;7.036;2023-03-04T02:17:30;21.90;;;4.93;;
18623;SDS011;9441;51.420;7.036;2023-03-04T02:18:32;20.70;;;4.60;;
18623;SDS011;9441;51.420;7.036;2023-03-04T02:19:36;25.70;;;4.43;;
18623;SDS011;9441;51.420;7.036;2023-03-04T02:20:44;16.57;;;3.97;;
18623;SDS011;9441;51.420;7.036;2023-03-04T02:21:49;24.60;;;4.53;;
18623;SDS011;9441;51.420;7.036;2023-03-04T02:22:53;20.87;;;4.50;;
18623;SDS011;9441;51.420;7.036;2023-03-04T02:24:01;23.67;;;4.70;;
18623;SDS011;9441;51.420;7.036;2023-03-04T02:25:06;21.07;;;4.10;;
18623;SDS011;9441;51.420;7.036;2023-03-04T02:26:12;23.97;;;5.20;;
18623;SDS011;9441;51.420;7.036;2023-03-04T02:27:14;19.77;;;4.77;;
18623;SDS011;9441;51.420;7.036;2023-03-04T02:28:16;29.43;;;4.83;;
18623;SDS011;9441;51.420;7.036;2023-03-04T02:29:18;23.03;;;4.30;;
18623;SDS011;9441;51.420;7.036;2023-03-04T02:30:21;17.97;;;4.97;;
18623;SDS011;9441;51.420;7.036;2023-03-04T02:31:25;17.30;;;3.83;;
18623;SDS011;9441;51.420;7.036;2023-03-04T02:32:29;19.97;;;4.27;;
18623;SDS011;9441;51.420;7.036;2023-03-04T02:33:30;20.67;;;4.17;;
18623;SDS011;9441;51.420;7.036;2023-03-04T02:34:33;22.03;;;4.83;;
18623;SDS011;9441;51.420;7.036;2023-03-04T02:35:35;22.80;;;4.53;;
18623;SDS011;9441;51.420;7.036;2023-03-04T02:36:38;15.97;;;3.87;;
18623;SDS011;9441;51.420;7.036;2023-03-04T02:37:39;21.43;;;4.13;;
18623;SDS011;9441;51.420;7.036;2023-03-04T02:38:41;30.70;;;6.13;;
18623;SDS011;9441;51.420;7.036;2023-03-04T02:39:43;27.73;;;6.07;;
18623;SDS011;9441;51.420;7.036;2023-03-04T02:40:47;27.13;;;5.57;;
18623;SDS011;9441;51.420;7.036;2023-03-04T02:41:52;26.47;;;5.43;;
18623;SDS011;9441;51.420;7.036;2023-03-04T02:42:57;22.50;;;5.10;;
18623;SDS011;9441;51.420;7.036;2023-03-04T02:43:59;21.93;;;5.07;;
18623;SDS011;9441;51.420;7.036;2023-03-04T02:45:01;18.73;;;5.30;;
18623;SDS011;9441;51.420;7.036;2023-03-04T02:46:03;27.87;;;5.20;;
18623;SDS011;9441;51.420;7.036;2023-03-04T02:47:07;17.97;;;4.47;;
18623;SDS011;9441;51.420;7.036;2023-03-04T02:48:10;21.87;;;5.13;;
18623;SDS011;9441;51.420;7.036;2023-03-04T02:49:12;23.33;;;4.63;;
18623;SDS011;9441;51.420;7.036;2023-03-04T02:50:14;18.77;;;4.97;;
18623;SDS011;9441;51.420;7.036;2023-03-04T02:51:17;20.33;;;5.50;;
18623;SDS011;9441;51.420;7.036;2023-03-04T02:52:20;26.17;;;4.90;;
18623;SDS011;9441;51.420;7.036;2023-03-04T02:53:23;30.87;;;5.47;;
18623;SDS011;9441;51.420;7.036;2023-03-04T02:54:25;28.80;;;5.27;;
18623;SDS011;9441;51.420;7.036;2023-03-04T02:55:28;28.40;;;4.93;;
18623;SDS011;9441;51.420;7.036;2023-03-04T02:56:29;29.90;;;4.83;;
18623;SDS011;9441;51.420;7.036;2023-03-04T02:57:33;21.70;;;4.77;;
18623;SDS011;9441;51.420;7.036;2023-03-04T02:58:35;22.50;;;5.10;;
18623;SDS011;9441;51.420;7.036;2023-03-04T02:59:38;23.07;;;5.00;;
18623;SDS011;9441;51.420;7.036;2023-03-04T03:00:40;28.33;;;5.30;;
18623;SDS011;9441;51.420;7.036;2023-03-04T03:01:42;26.40;;;5.07;;
18623;SDS011;9441;51.420;7.036;2023-03-04T03:02:44;30.90;;;4.87;;
18623;SDS011;9441;51.420;7.036;2023-03-04T03:03:46;21.87;;;4.67;;
18623;SDS011;9441;51.420;7.036;2023-03-04T03:04:49;18.50;;;4.77;;
18623;SDS011;9441;51.420;7.036;2023-03-04T03:05:52;25.03;;;4.50;;
18623;SDS011;9441;51.420;7.036;2023-03-04T03:06:56;23.23;;;4.87;;
18623;SDS011;9441;51.420;7.036;2023-03-04T03:07:58;25.33;;;5.10;;
18623;SDS011;9441;51.420;7.036;2023-03-04T03:09:01;21.70;;;4.50;;
18623;SDS011;9441;51.420;7.036;2023-03-04T03:10:03;18.43;;;4.50;;
18623;SDS011;9441;51.420;7.036;2023-03-04T03:11:05;23.93;;;4.73;;
18623;SDS011;9441;51.420;7.036;2023-03-04T03:12:07;23.13;;;4.87;;
18623;SDS011;9441;51.420;7.036;2023-03-04T03:13:12;21.80;;;4.50;;
18623;SDS011;9441;51.420;7.036;2023-03-04T03:14:13;22.43;;;4.50;;
18623;SDS011;9441;51.420;7.036;2023-03-04T03:15:16;22.70;;;5.03;;
18623;SDS011;9441;51.420;7.036;2023-03-04T03:16:18;26.27;;;4.57;;
18623;SDS011;9441;51.420;7.036;2023-03-04T03:17:20;19.53;;;4.20;;
18623;SDS011;9441;51.420;7.036;2023-03-04T03:18:22;21.83;;;4.03;;
18623;SDS011;9441;51.420;7.036;2023-03-04T03:19:24;24.37;;;4.80;;
18623;SDS011;9441;51.420;7.036;2023-03-04T03:20:26;24.97;;;4.43;;
18623;SDS011;9441;51.420;7.036;2023-03-04T03:21:29;23.10;;;5.50;;
18623;SDS011;9441;51.420;7.036;2023-03-04T03:22:30;23.77;;;4.60;;
18623;SDS011;9441;51.420;7.036;2023-03-04T03:23:33;21.37;;;4.53;;
18623;SDS011;9441;51.420;7.036;2023-03-04T03:24:34;18.17;;;4.50;;
18623;SDS011;9441;51.420;7.036;2023-03-04T03:25:37;23.63;;;4.20;;
18623;SDS011;9441;51.420;7.036;2023-03-04T03:26:39;19.83;;;4.00;;
18623;SDS011;9441;51.420;7.036;2023-03-04T03:27:41;19.17;;;4.17;;
18623;SDS011;9441;51.420;7.036;2023-03-04T03:28:45;21.73;;;4.50;;
18623;SDS011;9441;51.420;7.036;2023-03-04T03:29:48;22.73;;;4.27;;
18623;SDS011;9441;51.420;7.036;2023-03-04T03:30:49;24.60;;;4.10;;
18623;SDS011;9441;51.420;7.036;2023-03-04T03:31:51;20.80;;;3.97;;
18623;SDS011;9441;51.420;7.036;2023-03-04T03:32:54;24.30;;;4.43;;
18623;SDS011;9441;51.420;7.036;2023-03-04T03:33:57;18.97;;;4.30;;
18623;SDS011;9441;51.420;7.036;2023-03-04T03:34:59;27.27;;;4.20;;
18623;SDS011;9441;51.420;7.036;2023-03-04T03:36:02;23.73;;;4.50;;
18623;SDS011;9441;51.420;7.036;2023-03-04T03:37:04;22.60;;;4.23;;
18623;SDS011;9441;51.420;7.036;2023-03-04T03:38:06;22.53;;;4.43;;
18623;SDS011;9441;51.420;7.036;2023-03-04T03:39:07;18.23;;;4.23;;
18623;SDS011;9441;51.420;7.036;2023-03-04T03:40:10;18.13;;;3.93;;
18623;SDS011;9441;51.420;7.036;2023-03-04T03:41:12;22.90;;;4.27;;
18623;SDS011;9441;51.420;7.036;2023-03-04T03:42:14;20.47;;;4.00;;
18623;SDS011;9441;51.420;7.036;2023-03-04T03:43:16;20.17;;;4.00;;
18623;SDS011;9441;51.420;7.036;2023-03-04T03:44:19;19.47;;;4.17;;
18623;SDS011;9441;51.420;7.036;2023-03-04T03:45:21;20.73;;;3.97;;
18623;SDS011;9441;51.420;7.036;2023-03-04T03:46:23;25.30;;;4.53;;
18623;SDS011;9441;51.420;7.036;2023-03-04T03:47:25;18.07;;;4.37;;
18623;SDS011;9441;51.420;7.036;2023-03-04T03:48:27;21.10;;;4.33;;
18623;SDS011;9441;51.420;7.036;2023-03-04T03:49:28;16.87;;;4.10;;
18623;SDS011;9441;51.420;7.036;2023-03-04T03:50:31;22.63;;;4.13;;
18623;SDS011;9441;51.420;7.036;2023-03-04T03:51:32;24.30;;;4.50;;
18623;SDS011;9441;51.420;7.036;2023-03-04T03:52:34;17.00;;;4.07;;
18623;SDS011;9441;51.420;7.036;2023-03-04T03:53:36;26.27;;;4.50;;
18623;SDS011;9441;51.420;7.036;2023-03-04T03:54:38;18.93;;;3.90;;
18623;SDS011;9441;51.420;7.036;2023-03-04T03:55:40;19.30;;;4.40;;
18623;SDS011;9441;51.420;7.036;2023-03-04T03:56:42;19.47;;;3.60;;
18623;SDS011;9441;51.420;7.036;2023-03-04T03:57:43;21.80;;;4.17;;
18623;SDS011;9441;51.420;7.036;2023-03-04T03:58:46;13.77;;;4.00;;
18623;SDS011;9441;51.420;7.036;2023-03-04T03:59:48;18.23;;;4.10;;
18623;SDS011;9441;51.420;7.036;2023-03-04T04:00:51;19.53;;;4.37;;
18623;SDS011;9441;51.420;7.036;2023-03-04T04:01:52;18.97;;;4.07;;
18623;SDS011;9441;51.420;7.036;2023-03-04T04:02:54;19.20;;;3.97;;
18623;SDS011;9441;51.420;7.036;2023-03-04T04:03:57;23.43;;;4.00;;
18623;SDS011;9441;51.420;7.036;2023-03-04T04:04:59;18.17;;;3.63;;
18623;SDS011;9441;51.420;7.036;2023-03-04T04:06:00;21.23;;;3.80;;
18623;SDS011;9441;51.420;7.036;2023-03-04T04:07:03;11.77;;;3.47;;
18623;SDS011;9441;51.420;7.036;2023-03-04T04:08:04;19.17;;;4.00;;
18623;SDS011;9441;51.420;7.036;2023-03-04T04:09:07;17.07;;;3.80;;
18623;SDS011;9441;51.420;7.036;2023-03-04T04:10:09;17.00;;;3.77;;
18623;SDS011;9441;51.420;7.036;2023-03-04T04:11:11;15.30;;;4.63;;
18623;SDS011;9441;51.420;7.036;2023-03-04T04:12:13;13.33;;;3.20;;
18623;SDS011;9441;51.420;7.036;2023-03-04T04:13:15;23.10;;;4.50;;
18623;SDS011;9441;51.420;7.036;2023-03-04T04:14:17;16.47;;;3.80;;
18623;SDS011;9441;51.420;7.036;2023-03-04T04:15:21;24.23;;;3.70;;
18623;SDS011;9441;51.420;7.036;2023-03-04T04:16:23;20.60;;;4.07;;
18623;SDS011;9441;51.420;7.036;2023-03-04T04:17:25;21.00;;;3.57;;
18623;SDS011;9441;51.420;7.036;2023-03-04T04:18:26;17.07;;;3.67;;
18623;SDS011;9441;51.420;7.036;2023-03-04T04:19:29;23.97;;;3.73;;
18623;SDS011;9441;51.420;7.036;2023-03-04T04:20:30;21.70;;;4.20;;
18623;SDS011;9441;51.420;7.036;2023-03-04T04:21:32;17.20;;;3.73;;
18623;SDS011;9441;51.420;7.036;2023-03-04T04:22:34;22.57;;;5.17;;
18623;SDS011;9441;51.420;7.036;2023-03-04T04:23:36;19.50;;;3.30;;
18623;SDS011;9441;51.420;7.036;2023-03-04T04:24:37;20.37;;;3.80;;
18623;SDS011;9441;51.420;7.036;2023-03-04T04:25:40;20.00;;;4.83;;
18623;SDS011;9441;51.420;7.036;2023-03-04T04:26:41;18.40;;;4.43;;
18623;SDS011;9441;51.420;7.036;2023-03-04T04:27:44;18.47;;;4.30;;
18623;SDS011;9441;51.420;7.036;2023-03-04T04:28:45;19.03;;;4.00;;
18623;SDS011;9441;51.420;7.036;2023-03-04T04:29:47;13.83;;;4.00;;
18623;SDS011;9441;51.420;7.036;2023-03-04T04:30:50;16.00;;;3.27;;
18623;SDS011;9441;51.420;7.036;2023-03-04T04:31:52;21.10;;;3.70;;
18623;SDS011;9441;51.420;7.036;2023-03-04T04:32:54;14.97;;;4.03;;
18623;SDS011;9441;51.420;7.036;2023-03-04T04:34:00;19.33;;;3.87;;
18623;SDS011;9441;51.420;7.036;2023-03-04T04:35:02;21.33;;;4.07;;
18623;SDS011;9441;51.420;7.036;2023-03-04T04:36:04;20.30;;;3.43;;
18623;SDS011;9441;51.420;7.036;2023-03-04T04:37:06;20.63;;;3.40;;
18623;SDS011;9441;51.420;7.036;2023-03-04T04:38:08;17.50;;;3.80;;
18623;SDS011;9441;51.420;7.036;2023-03-04T04:39:10;24.27;;;3.60;;
18623;SDS011;9441;51.420;7.036;2023-03-04T04:40:12;23.20;;;4.47;;
18623;SDS011;9441;51.420;7.036;2023-03-04T04:41:16;15.37;;;3.67;;
18623;SDS011;9441;51.420;7.036;2023-03-04T04:42:19;19.07;;;3.70;;
18623;SDS011;9441;51.420;7.036;2023-03-04T04:43:21;15.27;;;3.47;;
18623;SDS011;9441;51.420;7.036;2023-03-04T04:44:23;14.50;;;3.30;;
18623;SDS011;9441;51.420;7.036;2023-03-04T04:45:24;24.33;;;3.23;;
18623;SDS011;9441;51.420;7.036;2023-03-04T04:46:28;12.43;;;3.17;;
18623;SDS011;9441;51.420;7.036;2023-03-04T04:47:29;15.43;;;3.30;;
18623;SDS011;9441;51.420;7.036;2023-03-04T04:48:32;17.27;;;3.23;;
18623;SDS011;9441;51.420;7.036;2023-03-04T04:49:33;14.30;;;3.07;;
18623;SDS011;9441;51.420;7.036;2023-03-04T04:50:35;14.43;;;2.90;;
18623;SDS011;9441;51.420;7.036;2023-03-04T04:51:37;17.50;;;3.40;;
18623;SDS011;9441;51.420;7.036;2023-03-04T04:52:39;18.33;;;3.40;;
18623;SDS011;9441;51.420;7.036;2023-03-04T04:53:41;12.97;;;3.23;;
18623;SDS011;9441;51.420;7.036;2023-03-04T04:54:44;15.40;;;3.73;;
18623;SDS011;9441;51.420;7.036;2023-03-04T04:55:45;15.50;;;3.60;;
18623;SDS011;9441;51.420;7.036;2023-03-04T04:56:47;15.13;;;3.47;;
18623;SDS011;9441;51.420;7.036;2023-03-04T04:57:49;17.33;;;3.03;;
18623;SDS011;9441;51.420;7.036;2023-03-04T04:58:52;16.30;;;3.20;;
18623;SDS011;9441;51.420;7.036;2023-03-04T04:59:53;12.83;;;3.10;;
18623;SDS011;9441;51.420;7.036;2023-03-04T05:00:55;13.70;;;3.00;;
18623;SDS011;9441;51.420;7.036;2023-03-04T05:01:58;16.07;;;2.97;;
18623;SDS011;9441;51.420;7.036;2023-03-04T05:03:01;12.50;;;2.83;;
18623;SDS011;9441;51.420;7.036;2023-03-04T05:04:02;17.43;;;3.47;;
18623;SDS011;9441;51.420;7.036;2023-03-04T05:05:05;11.53;;;2.80;;
18623;SDS011;9441;51.420;7.036;2023-03-04T05:06:07;13.07;;;3.27;;
18623;SDS011;9441;51.420;7.036;2023-03-04T05:07:10;17.50;;;3.17;;
18623;SDS011;9441;51.420;7.036;2023-03-04T05:08:11;14.70;;;2.73;;
18623;SDS011;9441;51.420;7.036;2023-03-04T05:09:14;11.67;;;2.57;;
18623;SDS011;9441;51.420;7.036;2023-03-04T05:10:15;13.17;;;2.80;;
18623;SDS011;9441;51.420;7.036;2023-03-04T05:11:18;18.23;;;3.30;;
18623;SDS011;9441;51.420;7.036;2023-03-04T05:12:19;17.30;;;2.90;;
18623;SDS011;9441;51.420;7.036;2023-03-04T05:13:22;16.87;;;3.37;;
18623;SDS011;9441;51.420;7.036;2023-03-04T05:14:23;16.03;;;3.77;;
18623;SDS011;9441;51.420;7.036;2023-03-04T05:15:25;19.53;;;3.67;;
18623;SDS011;9441;51.420;7.036;2023-03-04T05:16:27;21.67;;;3.57;;
18623;SDS011;9441;51.420;7.036;2023-03-04T05:17:30;17.33;;;3.73;;
18623;SDS011;9441;51.420;7.036;2023-03-04T05:18:32;15.10;;;3.20;;
18623;SDS011;9441;51.420;7.036;2023-03-04T05:19:34;17.13;;;3.30;;
18623;SDS011;9441;51.420;7.036;2023-03-04T05:20:36;13.50;;;3.10;;
18623;SDS011;9441;51.420;7.036;2023-03-04T05:21:38;13.10;;;3.07;;
18623;SDS011;9441;51.420;7.036;2023-03-04T05:22:39;15.23;;;3.40;;
18623;SDS011;9441;51.420;7.036;2023-03-04T05:23:42;16.83;;;3.30;;
18623;SDS011;9441;51.420;7.036;2023-03-04T05:24:43;14.77;;;3.20;;
18623;SDS011;9441;51.420;7.036;2023-03-04T05:25:46;23.10;;;3.70;;
18623;SDS011;9441;51.420;7.036;2023-03-04T05:26:47;14.33;;;2.80;;
18623;SDS011;9441;51.420;7.036;2023-03-04T05:27:50;11.13;;;2.77;;
18623;SDS011;9441;51.420;7.036;2023-03-04T05:28:51;16.37;;;3.20;;
18623;SDS011;9441;51.420;7.036;2023-03-04T05:29:53;19.93;;;3.63;;
18623;SDS011;9441;51.420;7.036;2023-03-04T05:30:59;14.33;;;3.27;;
18623;SDS011;9441;51.420;7.036;2023-03-04T05:32:01;15.43;;;3.03;;
18623;SDS011;9441;51.420;7.036;2023-03-04T05:33:04;14.97;;;3.40;;
18623;SDS011;9441;51.420;7.036;2023-03-04T05:34:08;18.63;;;3.07;;
18623;SDS011;9441;51.420;7.036;2023-03-04T05:35:09;15.00;;;2.80;;
18623;SDS011;9441;51.420;7.036;2023-03-04T05:36:11;15.50;;;2.97;;
18623;SDS011;9441;51.420;7.036;2023-03-04T05:37:13;13.47;;;3.13;;
18623;SDS011;9441;51.420;7.036;2023-03-04T05:38:15;15.17;;;3.40;;
18623;SDS011;9441;51.420;7.036;2023-03-04T05:39:17;13.33;;;3.47;;
18623;SDS011;9441;51.420;7.036;2023-03-04T05:40:20;15.13;;;2.97;;
18623;SDS011;9441;51.420;7.036;2023-03-04T05:41:21;14.17;;;3.07;;
18623;SDS011;9441;51.420;7.036;2023-03-04T05:42:23;18.07;;;3.07;;
18623;SDS011;9441;51.420;7.036;2023-03-04T05:43:25;11.77;;;2.93;;
18623;SDS011;9441;51.420;7.036;2023-03-04T05:44:27;13.00;;;2.93;;
18623;SDS011;9441;51.420;7.036;2023-03-04T05:45:29;20.33;;;3.13;;
18623;SDS011;9441;51.420;7.036;2023-03-04T05:46:31;12.03;;;3.00;;
18623;SDS011;9441;51.420;7.036;2023-03-04T05:47:32;15.47;;;3.07;;
18623;SDS011;9441;51.420;7.036;2023-03-04T05:48:36;14.63;;;2.97;;
18623;SDS011;9441;51.420;7.036;2023-03-04T05:49:37;14.23;;;2.37;;
18623;SDS011;9441;51.420;7.036;2023-03-04T05:50:41;17.27;;;3.50;;
18623;SDS011;9441;51.420;7.036;2023-03-04T05:51:42;12.63;;;2.50;;
18623;SDS011;9441;51.420;7.036;2023-03-04T05:52:44;9.83;;;2.77;;
18623;SDS011;9441;51.420;7.036;2023-03-04T05:53:46;17.13;;;3.40;;
18623;SDS011;9441;51.420;7.036;2023-03-04T05:54:49;15.47;;;3.30;;
18623;SDS011;9441;51.420;7.036;2023-03-04T05:55:50;13.87;;;2.90;;
18623;SDS011;9441;51.420;7.036;2023-03-04T05:56:53;13.13;;;2.70;;
18623;SDS011;9441;51.420;7.036;2023-03-04T05:57:54;10.27;;;2.70;;
18623;SDS011;9441;51.420;7.036;2023-03-04T05:58:57;11.40;;;3.30;;
18623;SDS011;9441;51.420;7.036;2023-03-04T05:59:58;14.17;;;2.57;;
18623;SDS011;9441;51.420;7.036;2023-03-04T06:01:01;12.60;;;2.47;;
18623;SDS011;9441;51.420;7.036;2023-03-04T06:02:02;12.30;;;2.77;;
18623;SDS011;9441;51.420;7.036;2023-03-04T06:03:05;13.87;;;2.90;;
18623;SDS011;9441;51.420;7.036;2023-03-04T06:04:07;12.97;;;2.67;;
18623;SDS011;9441;51.420;7.036;2023-03-04T06:05:10;16.40;;;3.00;;
18623;SDS011;9441;51.420;7.036;2023-03-04T06:06:11;12.20;;;2.77;;
18623;SDS011;9441;51.420;7.036;2023-03-04T06:07:14;15.57;;;3.03;;
18623;SDS011;9441;51.420;7.036;2023-03-04T06:08:15;8.13;;;2.63;;
18623;SDS011;9441;51.420;7.036;2023-03-04T06:09:18;15.47;;;3.00;;
18623;SDS011;9441;51.420;7.036;2023-03-04T06:10:20;11.97;;;2.90;;
18623;SDS011;9441;51.420;7.036;2023-03-04T06:11:22;18.27;;;3.40;;
18623;SDS011;9441;51.420;7.036;2023-03-04T06:12:23;14.30;;;3.10;;
18623;SDS011;9441;51.420;7.036;2023-03-04T06:13:27;18.87;;;3.07;;
18623;SDS011;9441;51.420;7.036;2023-03-04T06:14:29;13.60;;;2.90;;
18623;SDS011;9441;51.420;7.036;2023-03-04T06:15:31;16.27;;;3.03;;